createdAt,value
2023-03-25T00:00:28.672Z,78.40
2023-03-25T00:02:58.238Z,78.70
2023-03-25T00:05:26.485Z,75.00
2023-03-25T00:07:54.728Z,70.70
2023-03-25T00:10:22.821Z,70.50
2023-03-25T00:12:52.464Z,72.50
2023-03-25T00:15:22.334Z,71.10
2023-03-25T00:17:50.767Z,72.70
2023-03-25T00:20:21.445Z,71.70
2023-03-25T00:22:49.534Z,73.20
2023-03-25T00:25:19.264Z,74.00
2023-03-25T00:27:50.689Z,75.00
2023-03-25T00:30:20.936Z,76.10
2023-03-25T00:32:50.135Z,77.30
2023-03-25T00:35:20.654Z,78.00
2023-03-25T00:37:59.968Z,78.50
2023-03-25T00:40:29.426Z,77.90
2023-03-25T00:42:58.493Z,78.90
2023-03-25T00:45:26.583Z,80.90
2023-03-25T00:47:55.003Z,81.30
2023-03-25T00:50:24.999Z,82.40
2023-03-25T00:52:54.695Z,82.70
2023-03-25T00:55:23.525Z,82.40
2023-03-25T00:57:51.694Z,82.10
2023-03-25T01:00:20.880Z,82.40
2023-03-25T01:02:53.818Z,82.10
2023-03-25T01:05:23.826Z,82.20
2023-03-25T01:07:52.020Z,82.00
2023-03-25T01:10:20.353Z,81.10
2023-03-25T01:12:48.418Z,80.60
2023-03-25T01:15:16.684Z,81.30
2023-03-25T01:17:44.817Z,80.30
2023-03-25T01:20:13.415Z,80.20
2023-03-25T01:22:42.861Z,79.20
2023-03-25T01:25:11.810Z,79.00
2023-03-25T01:27:39.987Z,78.80
2023-03-25T01:30:09.552Z,77.90
2023-03-25T01:32:37.768Z,77.60
2023-03-25T01:35:06.914Z,78.90
2023-03-25T01:37:36.702Z,78.00
2023-03-25T01:40:09.417Z,77.00
2023-03-25T01:42:37.632Z,77.10
2023-03-25T01:45:24.187Z,77.90
2023-03-25T01:48:00.425Z,84.10
2023-03-25T01:50:30.187Z,81.10
2023-03-25T01:53:00.841Z,80.10
2023-03-25T01:55:33.282Z,81.60
2023-03-25T01:58:04.811Z,82.50
2023-03-25T02:00:33.777Z,83.70
2023-03-25T02:03:03.857Z,85.70
2023-03-25T02:05:38.417Z,84.40
2023-03-25T02:08:09.200Z,84.30
2023-03-25T02:10:39.157Z,84.80
2023-03-25T02:13:08.619Z,85.50
2023-03-25T02:15:52.828Z,86.10
2023-03-25T02:18:31.258Z,86.00
2023-03-25T02:21:33.981Z,86.90
2023-03-25T02:24:54.322Z,87.80
2023-03-25T02:27:41.975Z,88.50
2023-03-25T02:30:36.836Z,89.40
2023-03-25T02:33:30.121Z,89.50
2023-03-25T02:36:32.133Z,90.50
2023-03-25T02:39:03.756Z,90.80
2023-03-25T02:41:38.927Z,91.00
2023-03-25T02:44:12.758Z,91.80
2023-03-25T02:46:46.995Z,91.90
2023-03-25T02:49:20.347Z,92.80
2023-03-25T02:51:54.327Z,93.10
2023-03-25T02:54:26.481Z,93.50
2023-03-25T02:56:57.592Z,93.10
2023-03-25T02:59:33.358Z,92.90
2023-03-25T03:02:06.018Z,91.60
2023-03-25T03:04:34.253Z,90.80
2023-03-25T03:07:02.591Z,89.80
2023-03-25T03:09:40.953Z,86.80
2023-03-25T03:12:21.624Z,87.30
2023-03-25T03:15:02.120Z,86.00
2023-03-25T03:17:38.343Z,84.40
2023-03-25T03:20:19.128Z,84.30
2023-03-25T03:22:52.803Z,83.70
2023-03-25T03:25:29.229Z,83.30
2023-03-25T03:28:01.502Z,83.20
2023-03-25T03:30:33.610Z,83.10
2023-03-25T03:33:10.028Z,83.70
2023-03-25T03:35:43.300Z,84.20
2023-03-25T03:38:14.663Z,85.10
2023-03-25T03:40:50.612Z,84.10
2023-03-25T03:43:24.846Z,83.60
2023-03-25T03:45:56.733Z,82.90
2023-03-25T03:48:29.586Z,83.30
2023-03-25T03:51:04.146Z,83.60
2023-03-25T03:53:36.892Z,84.50
2023-03-25T03:56:09.885Z,84.80
2023-03-25T03:58:43.028Z,85.30
2023-03-25T04:01:16.056Z,86.00
2023-03-25T04:03:48.689Z,86.80
2023-03-25T04:06:24.532Z,86.30
2023-03-25T04:08:59.830Z,86.50
2023-03-25T04:11:36.688Z,86.60
2023-03-25T04:14:06.764Z,87.00
2023-03-25T04:16:37.386Z,85.70
2023-03-25T04:19:06.016Z,84.90
2023-03-25T04:21:34.759Z,84.00
2023-03-25T04:24:02.882Z,82.00
2023-03-25T04:26:34.044Z,82.10
2023-03-25T04:29:03.784Z,81.20
2023-03-25T04:31:32.612Z,80.70
2023-03-25T04:34:02.389Z,80.60
2023-03-25T04:36:33.598Z,80.50
2023-03-25T04:39:01.754Z,80.00
2023-03-25T04:41:29.937Z,79.40
2023-03-25T04:43:59.687Z,80.00
2023-03-25T04:46:27.803Z,79.40
2023-03-25T04:48:57.087Z,78.90
2023-03-25T04:51:25.292Z,79.80
2023-03-25T04:53:53.471Z,78.20
2023-03-25T04:56:23.451Z,77.90
2023-03-25T04:58:51.746Z,77.60
2023-03-25T05:01:30.789Z,76.50
2023-03-25T05:04:05.534Z,76.40
2023-03-25T05:06:34.650Z,76.10
2023-03-25T05:09:04.307Z,76.00
2023-03-25T05:11:34.127Z,75.30
2023-03-25T05:14:02.337Z,74.90
2023-03-25T05:16:31.846Z,74.90
2023-03-25T05:19:00.018Z,75.40
2023-03-25T05:21:28.381Z,75.30
2023-03-25T05:23:58.182Z,75.00
2023-03-25T05:26:29.380Z,74.90
2023-03-25T05:29:01.632Z,75.70
2023-03-25T05:31:31.901Z,76.70
2023-03-25T05:34:00.115Z,77.10
2023-03-25T05:36:29.778Z,77.10
2023-03-25T05:38:58.222Z,77.10
2023-03-25T05:41:33.071Z,76.40
2023-03-25T05:44:01.808Z,76.70
2023-03-25T05:46:31.339Z,76.70
2023-03-25T05:49:00.957Z,77.90
2023-03-25T05:51:33.765Z,76.70
2023-03-25T05:54:02.653Z,77.40
2023-03-25T05:56:31.368Z,77.50
2023-03-25T05:58:59.491Z,77.80
2023-03-25T06:01:33.378Z,77.90
2023-03-25T06:04:04.565Z,78.60
2023-03-25T06:06:34.410Z,80.40
2023-03-25T06:09:04.230Z,81.80
2023-03-25T06:11:37.828Z,83.60
2023-03-25T06:14:07.014Z,85.40
2023-03-25T06:16:35.692Z,85.70
2023-03-25T06:19:05.833Z,86.40
2023-03-25T06:21:37.030Z,86.50
2023-03-25T06:24:05.635Z,86.40
2023-03-25T06:26:33.754Z,85.60
2023-03-25T06:29:03.904Z,85.90
2023-03-25T06:31:33.702Z,87.20
2023-03-25T06:34:02.551Z,86.20
2023-03-25T06:36:32.374Z,86.50
2023-03-25T06:39:00.476Z,87.30
2023-03-25T06:41:29.930Z,87.20
2023-03-25T06:44:24.480Z,86.40
2023-03-25T06:47:11.381Z,86.00
2023-03-25T06:49:50.765Z,85.90
2023-03-25T06:52:20.197Z,85.90
2023-03-25T06:54:48.266Z,86.00
2023-03-25T06:57:16.621Z,85.30
2023-03-25T06:59:45.538Z,86.00
2023-03-25T07:02:15.528Z,86.10
2023-03-25T07:04:43.982Z,85.20
2023-03-25T07:07:12.152Z,85.50
2023-03-25T07:09:41.629Z,83.90
2023-03-25T07:12:09.828Z,84.60
2023-03-25T07:14:37.992Z,83.70
2023-03-25T07:17:06.460Z,83.20
2023-03-25T07:19:34.539Z,83.70
2023-03-25T07:22:02.619Z,84.50
2023-03-25T07:24:30.750Z,85.00
2023-03-25T07:27:00.200Z,84.70
2023-03-25T07:29:30.508Z,85.80
2023-03-25T07:31:58.576Z,85.60
2023-03-25T07:34:26.938Z,85.60
2023-03-25T07:36:55.104Z,87.40
2023-03-25T07:39:25.236Z,87.30
2023-03-25T07:41:53.537Z,86.70
2023-03-25T07:44:34.585Z,87.40
2023-03-25T07:47:02.662Z,87.40
2023-03-25T07:49:30.823Z,87.50
2023-03-25T07:51:58.892Z,88.00
2023-03-25T07:54:26.989Z,88.30
2023-03-25T07:56:55.558Z,88.30
2023-03-25T07:59:23.744Z,88.60
2023-03-25T08:01:53.946Z,89.20
2023-03-25T08:04:22.202Z,89.30
2023-03-25T08:06:50.399Z,89.60
2023-03-25T08:09:18.572Z,90.40
2023-03-25T08:11:47.103Z,90.30
2023-03-25T08:14:15.448Z,89.60
2023-03-25T08:16:43.497Z,89.70
2023-03-25T08:19:13.130Z,89.50
2023-03-25T08:21:41.434Z,88.90
2023-03-25T08:24:11.422Z,88.60
2023-03-25T08:26:40.098Z,88.20
2023-03-25T08:29:10.192Z,88.00
2023-03-25T08:31:38.928Z,86.20
2023-03-25T08:34:07.720Z,86.20
2023-03-25T08:36:39.312Z,85.40
2023-03-25T08:39:11.695Z,83.20
2023-03-25T08:41:40.437Z,83.70
2023-03-25T08:44:08.689Z,82.50
2023-03-25T08:46:37.284Z,81.00
2023-03-25T08:49:07.361Z,80.50
2023-03-25T08:51:36.793Z,77.10
2023-03-25T08:54:05.031Z,78.40
2023-03-25T08:56:33.167Z,77.60
2023-03-25T08:59:01.367Z,77.70
2023-03-25T09:01:29.614Z,77.60
2023-03-25T09:03:57.818Z,78.00
2023-03-25T09:06:26.107Z,76.60
2023-03-25T09:08:56.228Z,76.20
2023-03-25T09:11:36.126Z,76.80
2023-03-25T09:14:05.655Z,76.00
2023-03-25T09:16:34.277Z,76.40
2023-03-25T09:19:02.420Z,76.90
2023-03-25T09:21:30.551Z,77.40
2023-03-25T09:24:00.120Z,77.90
2023-03-25T09:26:28.478Z,80.40
2023-03-25T09:28:56.622Z,79.80
2023-03-25T09:31:24.735Z,79.60
2023-03-25T09:33:53.143Z,79.70
2023-03-25T09:36:21.414Z,79.30
2023-03-25T09:38:49.646Z,79.20
2023-03-25T09:41:54.000Z,78.00
2023-03-25T09:44:26.292Z,75.70
2023-03-25T09:46:55.605Z,75.30
2023-03-25T09:49:31.238Z,74.10
2023-03-25T09:52:00.437Z,71.90
2023-03-25T09:54:32.750Z,72.60
2023-03-25T09:57:08.272Z,72.40
2023-03-25T09:59:42.926Z,72.40
2023-03-25T10:02:26.815Z,72.80
2023-03-25T10:05:11.859Z,71.40
2023-03-25T10:08:02.794Z,70.00
2023-03-25T10:10:38.018Z,68.50
2023-03-25T10:13:19.335Z,68.20
2023-03-25T10:15:55.428Z,68.20
2023-03-25T10:18:56.713Z,68.20
2023-03-25T10:21:32.593Z,68.80
2023-03-25T10:24:14.081Z,68.50
2023-03-25T10:26:47.228Z,69.90
2023-03-25T10:29:22.392Z,68.50
2023-03-25T10:31:54.756Z,69.70
2023-03-25T10:34:30.936Z,70.10
2023-03-25T10:37:05.008Z,69.90
2023-03-25T10:39:38.164Z,67.80
2023-03-25T10:42:20.408Z,68.50
2023-03-25T10:44:50.072Z,67.80
2023-03-25T10:47:22.343Z,67.90
2023-03-25T10:49:52.440Z,64.80
2023-03-25T10:52:20.640Z,54.60
2023-03-25T10:54:54.444Z,57.90
2023-03-25T10:57:27.831Z,55.20
2023-03-25T11:00:05.964Z,53.40
2023-03-25T11:02:35.651Z,51.10
2023-03-25T11:05:08.607Z,53.20
2023-03-25T11:07:38.889Z,52.70
2023-03-25T11:10:12.390Z,48.80
2023-03-25T11:12:43.752Z,50.00
2023-03-25T11:15:17.125Z,49.40
2023-03-25T11:17:47.420Z,50.20
2023-03-25T11:20:22.517Z,48.80
2023-03-25T11:22:54.605Z,48.90
2023-03-25T11:25:30.916Z,48.10
2023-03-25T11:28:03.035Z,48.00
2023-03-25T11:30:32.708Z,49.00
2023-03-25T11:33:04.134Z,50.70
2023-03-25T11:35:34.840Z,50.40
2023-03-25T11:38:15.424Z,49.70
2023-03-25T11:40:52.406Z,48.70
2023-03-25T11:43:23.504Z,48.40
2023-03-25T11:45:53.515Z,48.70
2023-03-25T11:48:23.494Z,49.40
2023-03-25T11:50:59.312Z,49.50
2023-03-25T11:53:29.397Z,50.50
2023-03-25T11:56:00.695Z,48.50
2023-03-25T11:58:31.751Z,48.80
2023-03-25T12:01:05.738Z,50.00
2023-03-25T12:03:35.813Z,50.20
2023-03-25T12:06:07.742Z,49.80
2023-03-25T12:08:44.930Z,49.30
2023-03-25T12:11:17.924Z,50.00
2023-03-25T12:14:00.482Z,51.10
2023-03-25T12:16:36.082Z,49.80
2023-03-25T12:19:17.585Z,49.70
2023-03-25T12:22:00.960Z,46.80
2023-03-25T12:24:41.178Z,44.20
2023-03-25T12:27:26.749Z,45.80
2023-03-25T12:30:03.756Z,43.90
2023-03-25T12:32:41.735Z,42.70
2023-03-25T12:35:26.306Z,42.50
2023-03-25T12:38:10.534Z,41.10
2023-03-25T12:40:51.601Z,41.50
2023-03-25T12:43:29.956Z,43.50
2023-03-25T12:46:18.161Z,44.60
2023-03-25T12:49:10.537Z,40.70
2023-03-25T12:51:50.073Z,39.60
2023-03-25T12:54:31.788Z,39.10
2023-03-25T12:57:10.414Z,42.00
2023-03-25T13:00:02.434Z,41.60
2023-03-25T13:02:54.444Z,41.80
2023-03-25T13:05:28.351Z,42.10
2023-03-25T13:08:00.511Z,41.70
2023-03-25T13:10:32.328Z,44.70
2023-03-25T13:13:05.732Z,44.60
2023-03-25T13:15:37.699Z,46.60
2023-03-25T13:18:10.548Z,44.80
2023-03-25T13:20:43.381Z,43.60
2023-03-25T13:23:17.625Z,41.70
2023-03-25T13:25:51.957Z,41.70
2023-03-25T13:28:25.566Z,40.40
2023-03-25T13:30:55.302Z,39.70
2023-03-25T13:33:27.075Z,39.50
2023-03-25T13:36:03.876Z,40.20
2023-03-25T13:38:35.753Z,38.60
2023-03-25T13:41:12.950Z,38.00
2023-03-25T13:43:49.343Z,38.90
2023-03-25T13:46:21.518Z,38.30
2023-03-25T13:48:53.341Z,38.60
2023-03-25T13:51:22.950Z,39.70
2023-03-25T13:53:56.457Z,40.30
2023-03-25T13:57:01.354Z,40.80
2023-03-25T13:59:56.625Z,41.30
2023-03-25T14:02:40.682Z,41.30
2023-03-25T14:05:44.672Z,48.60
2023-03-25T14:08:50.188Z,50.90
2023-03-25T14:11:25.166Z,54.50
2023-03-25T14:13:56.637Z,55.00
2023-03-25T14:16:29.013Z,51.40
2023-03-25T14:19:04.130Z,54.40
2023-03-25T14:21:41.134Z,50.40
2023-03-25T14:24:15.550Z,50.00
2023-03-25T14:26:49.483Z,50.50
2023-03-25T14:29:32.688Z,49.20
2023-03-25T14:32:04.567Z,49.50
2023-03-25T14:34:32.722Z,48.80
2023-03-25T14:37:31.095Z,49.40
2023-03-25T14:40:10.724Z,46.90
2023-03-25T14:42:59.312Z,50.10
2023-03-25T14:46:04.837Z,45.90
2023-03-25T14:48:37.525Z,43.90
2023-03-25T14:51:44.763Z,42.10
2023-03-25T14:54:21.570Z,44.40
2023-03-25T14:56:55.718Z,43.30
2023-03-25T14:59:31.026Z,43.20
2023-03-25T15:02:05.331Z,41.90
2023-03-25T15:04:37.386Z,42.20
2023-03-25T15:07:12.601Z,42.20
2023-03-25T15:09:48.395Z,44.30
2023-03-25T15:12:19.565Z,42.50
2023-03-25T15:14:51.570Z,44.20
2023-03-25T15:17:43.470Z,42.60
2023-03-25T15:20:29.749Z,43.10
2023-03-25T15:23:33.297Z,38.80
2023-03-25T15:26:03.135Z,39.90
2023-03-25T15:29:07.806Z,40.00
2023-03-25T15:32:02.695Z,38.70
2023-03-25T15:34:54.106Z,37.00
2023-03-25T15:37:50.347Z,37.90
2023-03-25T15:40:32.049Z,38.30
2023-03-25T15:43:50.070Z,38.30
2023-03-25T15:46:43.899Z,36.90
2023-03-25T15:49:31.414Z,34.70
2023-03-25T15:52:13.334Z,34.90
2023-03-25T15:54:44.958Z,33.90
2023-03-25T15:57:22.631Z,35.60
2023-03-25T16:00:00.291Z,34.30
2023-03-25T16:02:33.681Z,33.30
2023-03-25T16:05:04.728Z,33.60
2023-03-25T16:07:35.988Z,33.80
2023-03-25T16:10:16.579Z,34.70
2023-03-25T16:12:47.429Z,34.30
2023-03-25T16:15:17.263Z,36.00
2023-03-25T16:17:47.124Z,36.00
2023-03-25T16:20:20.800Z,35.20
2023-03-25T16:22:51.726Z,35.30
2023-03-25T16:25:23.494Z,35.50
2023-03-25T16:27:54.122Z,36.10
2023-03-25T16:30:26.449Z,35.00
2023-03-25T16:32:54.655Z,35.70
2023-03-25T16:35:25.947Z,36.10
2023-03-25T16:37:57.097Z,34.90
2023-03-25T16:40:28.680Z,36.20
2023-03-25T16:43:03.547Z,36.60
2023-03-25T16:45:31.968Z,37.30
2023-03-25T16:48:07.210Z,38.80
2023-03-25T16:50:37.194Z,47.10
2023-03-25T16:53:06.669Z,52.90
2023-03-25T16:55:47.178Z,55.30
2023-03-25T16:58:19.335Z,55.50
2023-03-25T17:00:50.172Z,56.20
2023-03-25T17:03:39.871Z,57.20
2023-03-25T17:06:19.381Z,57.20
2023-03-25T17:08:51.408Z,57.40
2023-03-25T17:11:20.521Z,56.50
2023-03-25T17:13:52.212Z,58.70
2023-03-25T17:16:22.497Z,55.50
2023-03-25T17:18:52.816Z,54.20
2023-03-25T17:21:27.530Z,53.70
2023-03-25T17:23:57.897Z,53.20
2023-03-25T17:26:28.211Z,50.70
2023-03-25T17:29:02.893Z,48.90
2023-03-25T17:31:34.735Z,49.50
2023-03-25T17:34:07.437Z,50.30
2023-03-25T17:36:40.284Z,49.90
2023-03-25T17:39:18.455Z,50.10
2023-03-25T17:41:46.765Z,50.20
2023-03-25T17:44:16.401Z,50.30
2023-03-25T17:46:45.008Z,50.60
2023-03-25T17:49:16.801Z,51.40
2023-03-25T17:51:47.637Z,50.40
2023-03-25T17:54:15.935Z,50.00
2023-03-25T17:56:44.328Z,50.80
2023-03-25T17:59:17.261Z,51.10
2023-03-25T18:01:46.377Z,51.00
2023-03-25T18:04:15.688Z,51.10
2023-03-25T18:06:44.325Z,50.80
2023-03-25T18:09:17.777Z,51.80
2023-03-25T18:11:47.375Z,53.40
2023-03-25T18:14:15.726Z,54.80
2023-03-25T18:16:44.066Z,55.40
2023-03-25T18:19:16.282Z,54.90
2023-03-25T18:21:44.860Z,55.90
2023-03-25T18:24:14.124Z,55.90
2023-03-25T18:26:44.399Z,55.60
2023-03-25T18:29:16.827Z,54.40
2023-03-25T18:31:45.006Z,54.60
2023-03-25T18:34:13.797Z,54.30
2023-03-25T18:36:42.989Z,53.60
2023-03-25T18:39:14.260Z,53.70
2023-03-25T18:41:44.068Z,53.90
2023-03-25T18:44:12.729Z,54.20
2023-03-25T18:46:41.153Z,54.70
2023-03-25T18:49:13.507Z,52.80
2023-03-25T18:51:41.770Z,53.40
2023-03-25T18:54:10.897Z,53.60
2023-03-25T18:56:41.668Z,53.40
2023-03-25T18:59:12.702Z,53.00
2023-03-25T19:01:40.866Z,52.50
2023-03-25T19:04:09.223Z,52.60
2023-03-25T19:06:39.406Z,52.00
2023-03-25T19:09:09.437Z,52.60
2023-03-25T19:11:37.677Z,53.40
2023-03-25T19:14:05.850Z,55.90
2023-03-25T19:16:35.434Z,55.90
2023-03-25T19:19:03.726Z,57.90
2023-03-25T19:21:31.907Z,60.30
2023-03-25T19:24:00.126Z,58.70
2023-03-25T19:26:29.197Z,57.60
2023-03-25T19:28:57.310Z,59.00
2023-03-25T19:31:25.549Z,60.20
2023-03-25T19:33:55.118Z,60.60
2023-03-25T19:36:25.738Z,60.20
2023-03-25T19:38:56.245Z,61.90
2023-03-25T19:41:24.342Z,61.60
2023-03-25T19:43:52.479Z,61.20
2023-03-25T19:46:20.697Z,59.80
2023-03-25T19:48:48.807Z,60.00
2023-03-25T19:51:18.270Z,60.30
2023-03-25T19:53:46.335Z,61.40
2023-03-25T19:56:14.725Z,59.20
2023-03-25T19:58:42.938Z,58.90
2023-03-25T20:01:11.241Z,57.30
2023-03-25T20:03:41.148Z,58.50
2023-03-25T20:06:09.862Z,58.70
2023-03-25T20:08:39.294Z,59.80
2023-03-25T20:11:11.938Z,61.60
2023-03-25T20:13:40.355Z,62.80
2023-03-25T20:16:09.302Z,64.10
2023-03-25T20:18:37.517Z,64.90
2023-03-25T20:21:08.106Z,65.60
2023-03-25T20:23:36.309Z,65.90
2023-03-25T20:26:06.718Z,66.30
2023-03-25T20:28:36.146Z,66.70
2023-03-25T20:31:16.509Z,66.40
2023-03-25T20:33:44.653Z,65.80
2023-03-25T20:36:12.959Z,65.70
2023-03-25T20:38:50.472Z,66.00
2023-03-25T20:41:24.764Z,67.30
2023-03-25T20:43:52.944Z,66.40
2023-03-25T20:46:23.944Z,66.40
2023-03-25T20:48:52.120Z,66.70
2023-03-25T20:51:20.236Z,66.60
2023-03-25T20:53:48.610Z,65.90
2023-03-25T20:56:16.852Z,65.90
2023-03-25T20:58:46.705Z,65.90
2023-03-25T21:01:16.186Z,65.90
2023-03-25T21:03:44.320Z,64.60
2023-03-25T21:08:48.980Z,64.50
2023-03-25T21:11:17.539Z,63.60
2023-03-25T21:13:47.000Z,61.60
2023-03-25T21:16:15.227Z,61.20
2023-03-25T21:18:43.840Z,62.30
2023-03-25T21:21:12.355Z,62.70
2023-03-25T21:23:42.960Z,62.10
2023-03-25T21:26:11.856Z,62.30
2023-03-25T21:28:40.057Z,61.40
2023-03-25T21:31:13.921Z,61.10
2023-03-25T21:33:45.440Z,61.00
2023-03-25T21:36:15.734Z,60.70
2023-03-25T21:38:44.030Z,59.70
2023-03-25T21:41:12.512Z,59.00
2023-03-25T21:43:42.366Z,58.60
2023-03-25T21:46:12.828Z,58.60
2023-03-25T21:48:44.991Z,59.00
2023-03-25T21:51:14.636Z,58.90
2023-03-25T21:53:45.534Z,59.40
2023-03-25T21:56:17.327Z,59.70
2023-03-25T21:58:46.970Z,59.30
2023-03-25T22:01:19.640Z,59.10
2023-03-25T22:03:48.059Z,58.70
2023-03-25T22:06:18.493Z,58.90
2023-03-25T22:08:47.295Z,59.10
2023-03-25T22:11:16.886Z,59.20
2023-03-25T22:13:45.625Z,58.90
2023-03-25T22:16:17.605Z,59.70
2023-03-25T22:18:46.068Z,58.70
2023-03-25T22:21:17.862Z,59.00
2023-03-25T22:23:47.081Z,58.70
2023-03-25T22:26:16.219Z,58.40
2023-03-25T22:28:45.354Z,58.30
2023-03-25T22:31:15.591Z,58.90
2023-03-25T22:33:45.647Z,57.80
2023-03-25T22:36:15.986Z,57.70
2023-03-25T22:38:45.561Z,57.30
2023-03-25T22:41:16.670Z,56.40
2023-03-25T22:43:46.824Z,55.70
2023-03-25T22:46:16.182Z,56.10
2023-03-25T22:48:45.844Z,56.00
2023-03-25T22:51:16.106Z,54.90
2023-03-25T22:53:45.109Z,54.90
2023-03-25T22:56:13.593Z,54.10
2023-03-25T22:58:41.919Z,54.10
2023-03-25T23:01:20.518Z,54.60
2023-03-25T23:03:50.284Z,54.60
2023-03-25T23:06:19.068Z,54.90
2023-03-25T23:08:47.695Z,55.20
2023-03-25T23:11:17.736Z,56.00
2023-03-25T23:13:47.950Z,55.50
2023-03-25T23:16:18.402Z,56.50
2023-03-25T23:18:47.331Z,57.70
2023-03-25T23:21:19.994Z,58.00
2023-03-25T23:23:52.668Z,58.30
2023-03-25T23:26:24.780Z,58.10
2023-03-25T23:28:54.427Z,58.70
2023-03-25T23:31:28.525Z,58.20
2023-03-25T23:33:58.653Z,58.50
2023-03-25T23:36:29.228Z,58.70
2023-03-25T23:38:58.771Z,59.00
2023-03-25T23:41:27.242Z,59.00
2023-03-25T23:43:56.058Z,58.60
2023-03-25T23:46:25.477Z,58.60
2023-03-25T23:48:55.120Z,58.50
2023-03-25T23:51:24.938Z,57.90
2023-03-25T23:53:54.461Z,58.00
2023-03-25T23:56:25.069Z,58.60
2023-03-25T23:58:53.693Z,57.80
